Time;durP1;ratioP1;P1;durP2;ratioP2;P2;SDS_P1;SDS_P2;PMS_P1;PMS_P2;Temp;Humidity;BMP_temperature;BMP_pressure;BME280_temperature;BME280_humidity;BME280_pressure;Samples;Min_cycle;Max_cycle;Signal;HPM_P1;HPM_P2
2024/02/09 00:00:10;;;;;;;10.17;4.17;;;;;;;10.04;100.00;153937.03;5032800;28;20432;-91
2024/02/09 00:02:43;;;;;;;10.13;3.60;;;;;;;10.02;100.00;153933.16;5014831;28;20636;-91
2024/02/09 00:05:10;;;;;;;10.27;3.67;;;;;;;10.03;100.00;153935.78;5032280;28;20569;-91
2024/02/09 00:07:38;;;;;;;10.77;3.97;;;;;;;10.05;100.00;153939.63;5013897;28;20873;-91
2024/02/09 00:10:05;;;;;;;8.10;3.50;;;;;;;10.05;100.00;153940.94;5011309;28;20437;-92
2024/02/09 00:12:34;;;;;;;9.10;4.23;;;;;;;10.01;100.00;153929.25;5010788;28;20484;-91
2024/02/09 00:15:06;;;;;;;8.27;4.10;;;;;;;9.98;100.00;153922.78;5012525;28;20456;-91
2024/02/09 00:17:32;;;;;;;6.23;4.20;;;;;;;9.97;100.00;153920.22;5031727;28;20697;-91
2024/02/09 00:19:59;;;;;;;11.10;4.13;;;;;;;9.99;100.00;153924.09;5031351;28;20809;-92
2024/02/09 00:22:25;;;;;;;8.20;3.73;;;;;;;9.96;100.00;153917.63;5031428;28;21108;-90
2024/02/09 00:24:54;;;;;;;12.20;4.20;;;;;;;9.97;100.00;153918.91;5029973;28;20448;-91
2024/02/09 00:27:21;;;;;;;8.20;3.83;;;;;;;9.95;100.00;153915.06;5032662;28;20783;-91
2024/02/09 00:29:47;;;;;;;6.77;3.80;;;;;;;9.96;100.00;153916.31;5014344;28;20456;-91
2024/02/09 00:32:14;;;;;;;8.80;3.87;;;;;;;9.97;100.00;153920.22;5027666;28;20484;-90
2024/02/09 00:34:41;;;;;;;5.33;3.70;;;;;;;9.99;100.00;153925.38;5013192;28;20454;-91
2024/02/09 00:37:08;;;;;;;7.30;4.23;;;;;;;9.98;100.00;153921.53;5013769;28;20448;-90
2024/02/09 00:39:34;;;;;;;12.87;3.93;;;;;;;9.95;100.00;153915.06;5051323;28;20439;-90
2024/02/09 00:42:04;;;;;;;6.60;4.10;;;;;;;9.98;100.00;153922.78;5037410;28;20460;-91
2024/02/09 00:44:31;;;;;;;5.27;4.20;;;;;;;9.97;100.00;153920.22;5015217;28;20433;-91
2024/02/09 00:47:01;;;;;;;8.80;4.30;;;;;;;9.99;100.00;153925.38;5002575;28;20484;-91
2024/02/09 00:49:28;;;;;;;9.93;4.20;;;;;;;9.96;100.00;153917.63;5011684;28;20495;-91
2024/02/09 00:51:55;;;;;;;9.57;4.40;;;;;;;9.95;100.00;153913.75;5007811;28;20479;-91
2024/02/09 00:54:23;;;;;;;5.53;4.00;;;;;;;9.94;100.00;153911.16;5031087;28;20443;-91
2024/02/09 00:56:50;;;;;;;6.93;5.23;;;;;;;9.93;100.00;153909.84;5014936;28;20440;-90
2024/02/09 00:59:18;;;;;;;9.70;5.47;;;;;;;9.90;100.00;153900.81;4999535;28;20443;-91
2024/02/09 01:01:45;;;;;;;10.00;4.40;;;;;;;9.82;100.00;153882.69;5011533;28;20626;-91
2024/02/09 01:04:12;;;;;;;7.23;4.60;;;;;;;9.86;100.00;153890.44;4993929;28;20449;-91
2024/02/09 01:06:39;;;;;;;7.60;5.00;;;;;;;9.90;100.00;153900.81;4994483;28;20456;-91
2024/02/09 01:09:06;;;;;;;7.53;4.50;;;;;;;9.90;100.00;153900.81;5026583;28;20555;-91
2024/02/09 01:11:32;;;;;;;10.70;4.47;;;;;;;9.90;100.00;153900.81;5031497;28;20831;-91
2024/02/09 02:46:47;;;;;;;9.00;3.10;;;;;;;9.77;100.00;153869.75;5016886;28;20612;-94
2024/02/09 03:05:41;;;;;;;7.70;3.50;;;;;;;9.75;100.00;153863.28;5023440;28;20559;-93
2024/02/09 03:08:08;;;;;;;7.30;3.30;;;;;;;9.74;100.00;153860.72;5018241;28;20492;-93
2024/02/09 03:10:36;;;;;;;4.57;2.77;;;;;;;9.73;100.00;153859.41;5031702;28;20938;-93
2024/02/09 03:13:03;;;;;;;4.30;2.80;;;;;;;9.71;100.00;153852.94;5054415;28;20507;-94
2024/02/09 03:15:29;;;;;;;3.90;2.70;;;;;;;9.71;100.00;153854.25;5056640;28;20459;-94
2024/02/09 03:17:56;;;;;;;3.97;2.80;;;;;;;9.70;100.00;153850.34;5034112;28;20547;-94
2024/02/09 03:20:24;;;;;;;5.60;3.20;;;;;;;9.68;100.00;153845.16;5013375;28;20445;-94
2024/02/09 03:22:51;;;;;;;4.10;2.53;;;;;;;9.68;100.00;153845.16;5014579;28;20441;-93
2024/02/09 03:25:18;;;;;;;4.70;2.37;;;;;;;9.70;100.00;153851.63;5027574;28;20535;-94
2024/02/09 03:27:46;;;;;;;4.60;2.87;;;;;;;9.72;100.00;153856.81;5032816;28;20466;-94
2024/02/09 03:30:16;;;;;;;6.63;3.00;;;;;;;9.71;100.00;153854.25;5032858;28;20439;-93
2024/02/09 03:32:44;;;;;;;4.77;2.73;;;;;;;9.74;100.00;153860.72;5032655;28;20558;-94
2024/02/09 03:35:10;;;;;;;5.00;2.57;;;;;;;9.74;100.00;153860.72;5032319;28;20443;-93
2024/02/09 03:37:37;;;;;;;6.20;2.63;;;;;;;9.73;100.00;153859.41;5032639;28;20447;-94
2024/02/09 03:40:07;;;;;;;7.00;2.70;;;;;;;9.70;100.00;153851.63;5034653;28;20444;-94
2024/02/09 03:42:34;;;;;;;9.13;3.50;;;;;;;9.69;100.00;153849.03;5035319;28;20428;-94
2024/02/09 03:45:04;;;;;;;5.77;3.47;;;;;;;9.66;100.00;153841.25;5033812;28;20494;-94
2024/02/09 03:47:30;;;;;;;6.00;2.90;;;;;;;9.67;100.00;153843.88;5033312;28;20494;-94
2024/02/09 03:49:57;;;;;;;5.17;3.17;;;;;;;9.65;100.00;153838.72;5032118;28;20440;-94
2024/02/09 03:52:24;;;;;;;9.63;2.90;;;;;;;9.65;100.00;153837.41;5016148;28;20478;-95
2024/02/09 03:54:52;;;;;;;7.00;2.90;;;;;;;9.66;100.00;153841.25;5036202;28;20443;-94
2024/02/09 03:57:19;;;;;;;6.57;2.77;;;;;;;9.67;100.00;153842.56;5033777;28;20444;-94
2024/02/09 03:59:46;;;;;;;3.33;2.57;;;;;;;9.68;100.00;153846.47;5031869;28;20455;-95
2024/02/09 04:02:14;;;;;;;8.23;3.10;;;;;;;9.71;100.00;153854.25;5032686;28;21056;-94
2024/02/09 04:04:40;;;;;;;7.13;2.90;;;;;;;9.68;100.00;153846.47;5033032;28;20458;-94
2024/02/09 04:07:08;;;;;;;4.30;2.77;;;;;;;9.68;100.00;153846.47;5033107;28;20830;-95
2024/02/09 04:09:35;;;;;;;6.57;2.97;;;;;;;9.66;100.00;153840.00;5031673;28;20454;-94
2024/02/09 04:12:02;;;;;;;4.37;2.60;;;;;;;9.68;100.00;153846.47;5032783;28;20529;-94
2024/02/09 04:14:29;;;;;;;4.17;2.73;;;;;;;9.66;100.00;153840.00;5034854;28;20489;-94
2024/02/09 04:16:56;;;;;;;6.60;3.00;;;;;;;9.65;100.00;153838.72;5035046;28;20528;-94
2024/02/09 04:19:25;;;;;;;5.70;2.60;;;;;;;9.65;100.00;153838.72;5052700;28;20497;-94
2024/02/09 04:21:52;;;;;;;5.37;2.50;;;;;;;9.66;100.00;153841.25;5034467;28;20868;-94
2024/02/09 04:24:23;;;;;;;3.43;2.60;;;;;;;9.67;100.00;153843.88;5053416;28;20450;-94
2024/02/09 04:26:51;;;;;;;3.47;2.47;;;;;;;9.67;100.00;153843.88;5049194;28;20807;-94
2024/02/09 04:29:18;;;;;;;5.20;2.87;;;;;;;9.68;100.00;153846.47;5018782;28;20586;-94
2024/02/09 04:31:44;;;;;;;6.70;5.37;;;;;;;9.68;100.00;153846.47;5049141;28;20526;-94
2024/02/09 04:34:11;;;;;;;5.30;3.90;;;;;;;9.68;100.00;153845.16;5034155;28;20435;-94
2024/02/09 04:36:40;;;;;;;8.50;3.50;;;;;;;9.70;100.00;153850.34;5018160;28;21036;-93
2024/02/09 04:39:08;;;;;;;3.70;2.93;;;;;;;9.70;100.00;153851.63;5034507;28;20477;-94
2024/02/09 04:41:36;;;;;;;4.57;2.90;;;;;;;9.68;100.00;153846.47;5017996;28;20786;-94
2024/02/09 04:44:02;;;;;;;5.30;3.63;;;;;;;9.68;100.00;153845.16;5031196;28;20525;-94
2024/02/09 04:46:29;;;;;;;4.37;2.27;;;;;;;9.68;100.00;153845.16;5042518;28;20439;-94
2024/02/09 04:48:56;;;;;;;5.03;3.20;;;;;;;9.69;100.00;153849.03;5052299;28;20926;-94
2024/02/09 04:51:22;;;;;;;4.10;2.70;;;;;;;9.73;100.00;153858.09;5051105;28;20860;-94
2024/02/09 04:53:51;;;;;;;3.20;2.23;;;;;;;9.73;100.00;153859.41;5049858;28;20432;-94
2024/02/09 04:56:25;;;;;;;4.10;2.60;;;;;;;9.73;100.00;153859.41;5015293;28;20483;-94
2024/02/09 04:58:52;;;;;;;3.53;2.07;;;;;;;9.73;100.00;153859.41;5048618;28;20484;-94
2024/02/09 05:01:27;;;;;;;2.70;2.20;;;;;;;9.74;100.00;153861.97;5032539;28;20440;-94
2024/02/09 05:03:54;;;;;;;3.63;2.43;;;;;;;9.74;100.00;153860.72;5033346;28;20443;-93
2024/02/09 05:06:21;;;;;;;2.43;1.90;;;;;;;9.77;100.00;153869.75;5036013;28;20442;-94
2024/02/09 05:08:48;;;;;;;3.03;2.20;;;;;;;9.79;100.00;153874.91;5052752;28;20513;-94
2024/02/09 05:11:16;;;;;;;2.73;2.10;;;;;;;9.78;100.00;153872.34;5052226;28;20444;-93
2024/02/09 05:13:42;;;;;;;3.80;2.20;;;;;;;9.82;100.00;153880.13;5017096;28;20486;-93
2024/02/09 05:16:09;;;;;;;2.30;1.43;;;;;;;9.83;100.00;153883.97;5047982;28;20444;-93
2024/02/09 05:18:36;;;;;;;3.00;2.30;;;;;;;9.82;100.00;153882.69;5014474;28;20451;-93
2024/02/09 05:21:03;;;;;;;3.87;2.00;;;;;;;9.84;100.00;153886.59;5032097;28;20475;-93
2024/02/09 05:23:29;;;;;;;2.77;2.10;;;;;;;9.83;100.00;153883.97;5030911;28;20806;-93
2024/02/09 05:25:56;;;;;;;1.60;1.30;;;;;;;9.84;100.00;153886.59;5033935;28;20439;-93
2024/02/09 05:28:24;;;;;;;4.27;1.70;;;;;;;9.86;100.00;153891.75;5034210;28;20451;-94
2024/02/09 05:30:50;;;;;;;3.97;1.80;;;;;;;9.88;100.00;153895.59;5052010;28;20427;-93
2024/02/09 05:33:17;;;;;;;2.53;2.10;;;;;;;9.88;100.00;153896.91;5017299;28;20474;-94
2024/02/09 05:35:44;;;;;;;2.40;1.67;;;;;;;9.89;100.00;153898.22;5034000;28;20849;-93
2024/02/09 05:38:12;;;;;;;2.00;1.63;;;;;;;9.92;100.00;153907.28;5033650;28;20798;-94
2024/02/09 05:40:39;;;;;;;2.80;1.43;;;;;;;9.91;100.00;153903.38;5033782;28;20445;-93
2024/02/09 05:43:05;;;;;;;2.83;1.70;;;;;;;9.91;100.00;153904.69;5033668;28;20431;-93
2024/02/09 05:45:34;;;;;;;1.90;1.33;;;;;;;9.92;100.00;153906.00;5030056;28;20440;-93
2024/02/09 05:48:01;;;;;;;1.97;1.50;;;;;;;9.92;100.00;153906.00;5031791;28;20788;-93
2024/02/09 05:50:27;;;;;;;2.10;1.50;;;;;;;9.89;100.00;153899.53;5013931;28;20452;-93
2024/02/09 05:52:56;;;;;;;2.50;1.60;;;;;;;9.93;100.00;153908.59;5032934;28;20472;-93
2024/02/09 05:55:23;;;;;;;2.83;1.87;;;;;;;9.91;100.00;153904.69;5035518;28;20481;-93
2024/02/09 05:57:55;;;;;;;2.70;1.30;;;;;;;9.94;100.00;153911.16;5051993;28;20447;-93
2024/02/09 06:00:22;;;;;;;3.37;1.60;;;;;;;9.94;100.00;153911.16;5031123;28;20440;-93
2024/02/09 06:02:51;;;;;;;2.10;1.20;;;;;;;9.93;100.00;153909.84;5052380;28;20431;-93
2024/02/09 06:05:17;;;;;;;2.03;1.60;;;;;;;9.97;100.00;153918.91;5033949;28;20462;-92
2024/02/09 06:07:44;;;;;;;1.73;1.07;;;;;;;9.96;100.00;153916.31;5050080;28;20451;-93
2024/02/09 06:10:11;;;;;;;2.90;1.00;;;;;;;9.96;100.00;153917.63;5052063;28;20508;-93
2024/02/09 06:12:40;;;;;;;2.30;1.50;;;;;;;9.98;100.00;153922.78;5022576;28;20481;-93
2024/02/09 06:15:08;;;;;;;2.00;1.47;;;;;;;9.98;100.00;153921.53;5013940;28;20572;-93
2024/02/09 06:17:34;;;;;;;3.13;1.50;;;;;;;9.97;100.00;153918.91;5047544;28;20486;-93
2024/02/09 06:20:03;;;;;;;5.03;1.83;;;;;;;9.96;100.00;153917.63;5023930;28;20472;-93
2024/02/09 06:22:29;;;;;;;2.27;1.33;;;;;;;9.96;100.00;153916.31;5008355;28;20510;-93
2024/02/09 06:24:57;;;;;;;2.17;1.50;;;;;;;9.97;100.00;153918.91;5029958;28;20454;-94
2024/02/09 06:27:27;;;;;;;1.80;1.30;;;;;;;9.97;100.00;153920.22;5022747;28;20451;-94
2024/02/09 06:30:06;;;;;;;3.50;1.80;;;;;;;9.98;100.00;153921.53;4979236;28;20448;-93
2024/02/09 06:32:33;;;;;;;2.37;1.13;;;;;;;9.97;100.00;153920.22;5013384;28;20550;-94
2024/02/09 06:35:02;;;;;;;1.90;1.33;;;;;;;9.97;100.00;153920.22;5017474;28;20486;-93
2024/02/09 06:37:29;;;;;;;1.20;0.90;;;;;;;10.00;100.00;153926.69;5011650;28;20467;-94
2024/02/09 06:39:56;;;;;;;2.53;1.30;;;;;;;9.99;100.00;153925.38;4996515;28;20484;-93
2024/02/09 06:42:23;;;;;;;1.60;1.03;;;;;;;9.99;100.00;153924.09;4996088;28;20515;-93
2024/02/09 06:44:50;;;;;;;1.70;1.03;;;;;;;10.00;100.00;153928.00;4993746;28;20477;-93
2024/02/09 06:47:16;;;;;;;2.33;1.17;;;;;;;10.03;100.00;153934.47;4994871;28;20452;-94
2024/02/09 06:49:44;;;;;;;1.80;1.20;;;;;;;10.01;100.00;153929.25;5013366;28;20853;-93
2024/02/09 06:52:13;;;;;;;2.33;1.13;;;;;;;10.01;100.00;153929.25;4996095;28;20456;-93
2024/02/09 06:54:39;;;;;;;1.20;0.80;;;;;;;10.03;100.00;153934.47;5033680;28;20478;-93
2024/02/09 06:57:06;;;;;;;1.67;1.17;;;;;;;10.03;100.00;153935.78;5021053;28;20883;-92
2024/02/09 06:59:33;;;;;;;1.77;0.90;;;;;;;10.05;100.00;153939.63;5002760;28;20444;-93
2024/02/09 07:02:01;;;;;;;1.50;1.03;;;;;;;10.05;100.00;153939.63;5035157;28;20444;-93
2024/02/09 07:04:28;;;;;;;1.73;0.97;;;;;;;10.04;100.00;153937.03;5035043;28;20478;-93
2024/02/09 07:06:55;;;;;;;1.73;1.17;;;;;;;10.05;100.00;153939.63;4996582;28;20468;-92
2024/02/09 07:13:34;;;;;;;1.50;1.20;;;;;;;10.07;100.00;153944.81;4978735;28;20580;-93
2024/02/09 07:16:03;;;;;;;2.63;1.00;;;;;;;10.10;100.00;153952.56;4962300;28;21297;-93
2024/02/09 07:18:30;;;;;;;1.50;1.03;;;;;;;10.10;100.00;153953.88;4996601;28;20910;-93
2024/02/09 07:20:57;;;;;;;1.50;0.83;;;;;;;10.14;100.00;153964.25;4996707;28;20484;-93
2024/02/09 07:23:24;;;;;;;2.10;1.00;;;;;;;10.15;100.00;153965.56;4994862;28;20448;-92
2024/02/09 07:25:50;;;;;;;1.50;0.80;;;;;;;10.12;100.00;153957.72;4995473;28;20464;-92
2024/02/09 07:28:17;;;;;;;1.50;1.40;;;;;;;10.11;100.00;153955.19;4997653;28;20949;-92
2024/02/09 07:30:46;;;;;;;1.93;1.10;;;;;;;10.11;100.00;153955.19;4993300;28;20468;-93
2024/02/09 07:33:14;;;;;;;4.10;1.17;;;;;;;10.12;100.00;153957.72;4992674;28;21034;-93
2024/02/09 07:35:40;;;;;;;1.77;1.10;;;;;;;10.14;100.00;153963.00;4991823;28;20568;-92
2024/02/09 07:38:07;;;;;;;3.50;1.30;;;;;;;10.13;100.00;153960.41;5020171;28;20941;-94
2024/02/09 07:40:34;;;;;;;1.90;1.07;;;;;;;10.14;100.00;153964.25;4996276;28;20467;-93
2024/02/09 07:43:00;;;;;;;5.27;1.23;;;;;;;10.16;100.00;153968.16;4998459;28;20452;-93
2024/02/09 07:45:27;;;;;;;1.50;1.13;;;;;;;10.14;100.00;153964.25;5004490;28;20464;-92
2024/02/09 07:47:58;;;;;;;3.53;1.40;;;;;;;10.19;100.00;153975.94;5001881;28;20543;-91
2024/02/09 07:50:25;;;;;;;1.30;0.90;;;;;;;10.19;100.00;153975.94;5006348;28;20451;-92
2024/02/09 07:52:52;;;;;;;2.80;1.40;;;;;;;10.19;100.00;153975.94;5000646;28;20479;-91
2024/02/09 07:55:21;;;;;;;2.70;1.07;;;;;;;10.20;100.00;153978.50;4998857;28;20467;-92
2024/02/09 07:57:48;;;;;;;3.33;1.10;;;;;;;10.20;100.00;153978.50;5003886;28;20463;-92
2024/02/09 08:00:18;;;;;;;1.87;1.00;;;;;;;10.22;100.00;153984.97;5021043;28;20533;-92
2024/02/09 08:02:44;;;;;;;1.80;1.37;;;;;;;10.19;100.00;153975.94;4997639;28;20473;-93
2024/02/09 08:05:17;;;;;;;1.80;0.90;;;;;;;10.22;100.00;153984.97;5010506;28;20467;-93
2024/02/09 08:08:03;;;;;;;1.57;1.20;;;;;;;10.28;100.00;153999.22;5002347;28;20893;-94
2024/02/09 08:14:16;;;;;;;2.00;0.90;;;;;;;10.27;100.00;153996.66;5062479;22;20491;-92
2024/02/09 08:16:44;;;;;;;2.60;1.40;;;;;;;10.30;100.00;154005.69;5023706;28;20452;-95
2024/02/09 08:19:11;;;;;;;2.90;1.50;;;;;;;10.34;100.00;154016.06;5052062;28;20478;-92
2024/02/09 08:21:39;;;;;;;2.47;1.47;;;;;;;10.33;100.00;154013.47;5057652;28;20559;-93
2024/02/09 08:24:07;;;;;;;1.60;1.10;;;;;;;10.36;100.00;154021.22;5044103;28;20474;-92
2024/02/09 08:26:33;;;;;;;2.37;1.30;;;;;;;10.40;100.00;154030.31;5035439;28;20510;-93
2024/02/09 08:29:00;;;;;;;2.40;1.33;;;;;;;10.43;100.00;154038.09;5064979;28;20506;-93
2024/02/09 08:31:26;;;;;;;2.03;1.20;;;;;;;10.45;100.00;154043.25;5060709;23;20889;-93
2024/02/09 08:33:53;;;;;;;2.83;1.10;;;;;;;10.47;100.00;154048.41;5051919;28;20966;-92
2024/02/09 08:36:22;;;;;;;1.80;1.20;;;;;;;10.48;100.00;154051.03;5068846;28;20462;-92
2024/02/09 08:38:51;;;;;;;1.70;1.20;;;;;;;10.52;100.00;154061.34;5067948;28;20535;-93
2024/02/09 08:41:19;;;;;;;3.27;1.87;;;;;;;10.58;100.00;154075.59;5051307;28;20457;-92
2024/02/09 08:43:45;;;;;;;1.80;1.10;;;;;;;10.60;100.00;154082.06;5048410;28;20531;-92
2024/02/09 08:46:12;;;;;;;2.80;1.43;;;;;;;10.66;100.00;154097.63;5069497;28;21028;-92
2024/02/09 08:48:38;;;;;;;4.30;1.20;;;;;;;10.68;100.00;154102.78;5054236;28;20442;-92
2024/02/09 08:51:06;;;;;;;2.40;1.20;;;;;;;10.74;100.00;154117.03;5070244;28;20446;-91
2024/02/09 08:53:33;;;;;;;3.70;1.30;;;;;;;10.78;100.00;154128.69;5067741;28;20512;-91
2024/02/09 08:56:01;;;;;;;2.27;1.50;;;;;;;10.78;100.00;154128.69;5051290;28;20458;-93
2024/02/09 08:58:28;;;;;;;3.53;1.50;;;;;;;10.83;100.00;154141.63;5061791;28;20455;-93
2024/02/09 09:00:54;;;;;;;2.23;1.10;;;;;;;10.88;100.00;154154.56;5081078;28;20497;-93
2024/02/09 09:03:21;;;;;;;4.20;2.00;;;;;;;10.95;100.00;154171.44;5065652;28;20450;-93
2024/02/09 09:05:48;;;;;;;3.43;1.70;;;;;;;11.00;100.00;154185.69;5066642;28;20562;-93
2024/02/09 09:08:15;;;;;;;4.10;1.10;;;;;;;11.06;100.00;154199.94;5050613;28;20449;-93
2024/02/09 09:10:41;;;;;;;4.00;1.70;;;;;;;11.14;100.00;154219.38;5048795;28;20826;-93
2024/02/09 09:13:11;;;;;;;3.17;1.47;;;;;;;11.20;100.00;154236.19;5049693;28;20544;-92
2024/02/09 09:15:38;;;;;;;2.27;1.20;;;;;;;11.26;100.00;154250.44;5063390;28;20445;-92
2024/02/09 09:18:06;;;;;;;2.67;1.33;;;;;;;11.36;100.00;154276.34;5066390;28;20870;-92
2024/02/09 09:20:34;;;;;;;2.00;1.67;;;;;;;11.48;100.00;154307.47;5067773;28;20461;-92
2024/02/09 09:23:01;;;;;;;2.80;1.17;;;;;;;11.54;100.00;154324.28;5050025;28;20459;-93
2024/02/09 09:25:29;;;;;;;2.70;1.10;;;;;;;11.60;100.00;154338.53;5068096;28;20458;-90
2024/02/09 09:27:56;;;;;;;2.70;1.20;;;;;;;11.69;100.00;154361.94;5062707;28;20468;-92
2024/02/09 09:30:24;;;;;;;2.10;1.10;;;;;;;11.79;100.00;154387.84;5058766;28;20571;-92
2024/02/09 09:32:50;;;;;;;3.20;1.63;;;;;;;11.85;100.00;154403.41;5049706;28;20478;-92
2024/02/09 09:35:17;;;;;;;2.27;1.43;;;;;;;11.92;100.00;154420.22;5055570;28;20477;-92
2024/02/09 09:37:44;;;;;;;1.90;1.30;;;;;;;11.93;100.00;154424.16;5066688;28;20453;-92
2024/02/09 09:40:12;;;;;;;3.97;1.30;;;;;;;11.95;100.00;154429.31;5060736;28;20461;-93
2024/02/09 09:42:41;;;;;;;3.30;1.30;;;;;;;12.02;100.00;154446.19;5046175;28;20480;-92
2024/02/09 09:45:09;;;;;;;3.53;1.57;;;;;;;12.08;100.00;154461.72;5059630;28;21976;-92
2024/02/09 09:47:39;;;;;;;2.10;1.60;;;;;;;12.11;100.00;154469.50;5042065;28;20490;-92
2024/02/09 09:50:08;;;;;;;3.10;1.50;;;;;;;12.23;100.00;154501.91;5058885;28;20504;-92
2024/02/09 09:52:36;;;;;;;3.70;1.80;;;;;;;12.25;100.00;154504.50;5054908;28;20458;-93
2024/02/09 09:55:02;;;;;;;2.83;1.20;;;;;;;12.23;100.00;154501.91;5038241;28;20523;-92
2024/02/09 09:57:30;;;;;;;1.90;1.20;;;;;;;12.19;100.00;154491.56;5061320;28;20459;-93
2024/02/09 09:59:57;;;;;;;3.20;1.30;;;;;;;12.23;100.00;154499.34;5042729;28;20451;-92
2024/02/09 10:02:23;;;;;;;2.90;1.20;;;;;;;12.22;100.00;154498.03;5044659;28;20474;-92
2024/02/09 10:04:51;;;;;;;3.17;1.60;;;;;;;12.29;99.62;154514.84;5053532;28;20497;-91
2024/02/09 10:07:20;;;;;;;2.30;1.30;;;;;;;12.41;99.05;154546.00;5062073;28;20579;-92
2024/02/09 10:09:46;;;;;;;4.43;1.40;;;;;;;12.42;98.28;154548.56;5058464;28;20581;-93
2024/02/09 10:12:14;;;;;;;2.00;1.20;;;;;;;12.47;98.74;154561.59;5058636;28;20462;-92
2024/02/09 10:14:42;;;;;;;1.80;1.40;;;;;;;12.44;99.54;154553.78;5057535;28;20835;-92
2024/02/09 10:17:10;;;;;;;3.40;1.40;;;;;;;12.42;96.87;154548.56;5062622;28;20500;-91
2024/02/09 10:19:37;;;;;;;2.73;1.10;;;;;;;12.44;98.09;154553.78;5056524;28;20450;-92
2024/02/09 10:22:05;;;;;;;4.83;1.13;;;;;;;12.43;97.54;154551.19;5054826;28;20494;-91
2024/02/09 10:24:32;;;;;;;4.77;1.80;;;;;;;12.44;99.91;154555.09;5056778;28;20458;-91
2024/02/09 10:26:59;;;;;;;2.60;1.50;;;;;;;12.36;99.66;154534.34;5057688;28;20454;-92
2024/02/09 10:29:27;;;;;;;1.87;1.20;;;;;;;12.35;98.64;154530.44;5039067;28;20599;-91
2024/02/09 10:31:54;;;;;;;2.63;1.00;;;;;;;12.41;97.81;154546.00;5060516;28;20478;-91
2024/02/09 10:34:20;;;;;;;2.33;1.60;;;;;;;12.41;96.88;154546.00;5049576;28;20499;-92
2024/02/09 10:36:47;;;;;;;4.00;1.90;;;;;;;12.42;98.14;154548.56;5061904;28;20467;-92
2024/02/09 10:39:17;;;;;;;2.43;1.20;;;;;;;12.43;96.78;154552.50;5043999;28;20463;-91
2024/02/09 10:41:46;;;;;;;2.50;1.70;;;;;;;12.45;98.57;154556.34;5060121;28;20460;-91
2024/02/09 10:44:15;;;;;;;3.10;1.30;;;;;;;12.46;97.66;154558.97;5066708;28;20442;-91
2024/02/09 10:46:44;;;;;;;3.00;1.60;;;;;;;12.50;97.30;154569.31;5065336;28;20469;-91
2024/02/09 10:49:11;;;;;;;3.17;1.10;;;;;;;12.50;96.65;154569.31;5070035;28;20453;-91
2024/02/09 10:51:41;;;;;;;4.93;1.70;;;;;;;12.51;97.54;154571.94;5042683;28;20481;-91
2024/02/09 10:54:10;;;;;;;6.47;1.30;;;;;;;12.50;95.48;154569.31;5044844;28;20474;-91
2024/02/09 10:56:38;;;;;;;3.80;1.67;;;;;;;12.57;96.23;154587.50;5063482;28;20481;-91
2024/02/09 10:59:05;;;;;;;2.73;1.10;;;;;;;12.59;97.60;154592.69;5047271;28;20972;-91
2024/02/09 11:01:33;;;;;;;3.00;1.30;;;;;;;12.55;97.25;154583.59;5062552;28;20489;-90
2024/02/09 11:04:00;;;;;;;3.00;1.47;;;;;;;12.55;96.41;154582.34;5044621;28;20461;-90
2024/02/09 11:06:26;;;;;;;3.83;1.23;;;;;;;12.58;96.59;154590.06;5033865;28;20519;-91
2024/02/09 11:08:53;;;;;;;2.00;0.90;;;;;;;12.57;96.82;154588.81;5042100;28;20465;-90
2024/02/09 11:11:26;;;;;;;1.63;1.00;;;;;;;12.60;96.80;154595.28;5046784;28;20499;-91
2024/02/09 11:14:04;;;;;;;3.20;1.37;;;;;;;12.59;96.17;154592.69;5044696;28;20465;-90
2024/02/09 11:16:31;;;;;;;3.00;1.00;;;;;;;12.58;96.21;154590.06;5060195;28;20552;-90
2024/02/09 11:18:57;;;;;;;2.10;1.60;;;;;;;12.61;94.69;154599.16;5050202;28;20514;-90
2024/02/09 11:21:26;;;;;;;5.67;1.30;;;;;;;12.65;96.20;154609.56;5070795;28;20907;-90
2024/02/09 11:23:53;;;;;;;2.87;1.50;;;;;;;12.66;96.67;154612.13;5065314;28;20523;-91
2024/02/09 11:26:21;;;;;;;1.50;1.07;;;;;;;12.68;94.89;154616.03;5045279;28;20857;-91
2024/02/09 11:28:47;;;;;;;3.10;1.83;;;;;;;12.68;95.92;154616.03;5064558;28;20537;-91
2024/02/09 11:31:19;;;;;;;2.27;1.40;;;;;;;12.68;94.11;154616.03;5065030;28;20487;-90
2024/02/09 11:33:46;;;;;;;3.00;1.60;;;;;;;12.72;93.56;154627.72;5059679;28;20538;-89
2024/02/09 11:36:13;;;;;;;2.10;1.43;;;;;;;12.79;93.46;154645.84;5062925;28;20964;-90
2024/02/09 11:38:39;;;;;;;2.30;1.07;;;;;;;12.83;92.50;154654.94;5058974;28;20508;-89
2024/02/09 11:41:07;;;;;;;2.00;1.37;;;;;;;12.83;91.28;154654.94;5034907;28;20477;-90
2024/02/09 11:43:33;;;;;;;1.67;1.27;;;;;;;12.84;91.72;154657.50;5046379;28;20801;-89
2024/02/09 11:46:02;;;;;;;2.10;1.23;;;;;;;12.89;93.21;154670.53;5064604;28;20455;-88
2024/02/09 11:48:31;;;;;;;4.00;1.13;;;;;;;12.86;93.73;154662.72;5058933;28;20638;-88
2024/02/09 11:51:00;;;;;;;2.23;1.50;;;;;;;12.81;95.50;154651.03;5044259;28;20449;-90
2024/02/09 11:53:26;;;;;;;2.77;1.43;;;;;;;12.76;95.72;154636.81;5063128;28;20485;-90
2024/02/09 11:55:54;;;;;;;1.20;1.07;;;;;;;12.75;92.31;154634.19;5046895;28;20863;-90
2024/02/09 11:58:20;;;;;;;3.07;1.73;;;;;;;12.82;91.97;154652.31;5043249;28;20446;-89
2024/02/09 12:00:50;;;;;;;3.00;1.10;;;;;;;12.78;91.53;154641.97;5050471;28;20995;-90
2024/02/09 12:03:17;;;;;;;1.23;1.00;;;;;;;12.77;92.53;154640.66;5050161;28;20529;-90
2024/02/09 12:05:45;;;;;;;2.20;1.07;;;;;;;12.72;90.77;154626.41;5051391;28;20451;-90
2024/02/09 12:08:12;;;;;;;2.20;1.10;;;;;;;12.74;91.21;154631.56;5064289;28;20485;-89
2024/02/09 12:10:38;;;;;;;1.70;0.83;;;;;;;12.73;94.17;154629.00;5064062;28;20971;-89
2024/02/09 12:13:05;;;;;;;2.13;0.90;;;;;;;12.69;95.39;154618.63;5028752;28;20466;-89
2024/02/09 12:15:32;;;;;;;2.53;1.47;;;;;;;12.61;94.60;154599.16;5043984;28;20989;-90
2024/02/09 12:18:01;;;;;;;2.40;1.13;;;;;;;12.62;93.97;154600.47;5048008;28;20481;-89
2024/02/09 12:20:28;;;;;;;3.50;1.50;;;;;;;12.64;97.19;154605.66;5061808;28;20501;-88
2024/02/09 12:22:57;;;;;;;1.90;1.20;;;;;;;12.60;97.29;154596.56;5045645;28;20454;-88
2024/02/09 12:25:23;;;;;;;2.57;1.20;;;;;;;12.53;96.91;154577.09;5040913;28;20446;-88
2024/02/09 12:27:56;;;;;;;2.80;1.30;;;;;;;12.56;95.09;154584.91;5067045;28;20447;-88
2024/02/09 12:30:26;;;;;;;2.13;1.57;;;;;;;12.62;94.24;154600.47;5046777;28;20959;-89
2024/02/09 12:32:53;;;;;;;2.80;1.10;;;;;;;12.68;95.68;154617.31;5060630;28;20876;-88
2024/02/09 12:35:27;;;;;;;1.80;1.47;;;;;;;12.64;96.19;154605.66;5067007;28;20524;-89
2024/02/09 12:37:56;;;;;;;2.07;1.40;;;;;;;12.62;97.85;154601.78;5064113;28;20458;-89
2024/02/09 12:40:24;;;;;;;2.87;1.40;;;;;;;12.64;98.66;154606.94;5065770;28;20532;-90
2024/02/09 12:42:53;;;;;;;2.03;1.37;;;;;;;12.65;98.88;154608.25;5047320;28;20462;-89
2024/02/09 12:45:28;;;;;;;2.00;1.43;;;;;;;12.64;98.97;154606.94;5070150;28;20446;-90
2024/02/09 12:47:54;;;;;;;1.90;1.20;;;;;;;12.64;100.00;154605.66;5047696;28;20455;-89
2024/02/09 12:50:21;;;;;;;3.53;1.57;;;;;;;12.59;99.51;154592.69;5060810;28;20450;-89
2024/02/09 12:52:49;;;;;;;2.27;1.47;;;;;;;12.59;99.70;154592.69;5045081;28;20489;-90
2024/02/09 12:55:17;;;;;;;2.03;1.70;;;;;;;12.56;99.06;154584.91;5061372;28;20478;-90
2024/02/09 12:57:45;;;;;;;3.73;1.80;;;;;;;12.56;99.34;154584.91;5046903;28;20489;-90
2024/02/09 13:00:13;;;;;;;1.60;1.23;;;;;;;12.60;100.00;154595.28;5063518;28;20458;-89
2024/02/09 13:02:42;;;;;;;1.97;1.30;;;;;;;12.55;100.00;154582.34;5052592;28;20463;-90
2024/02/09 13:05:08;;;;;;;2.50;1.57;;;;;;;12.56;100.00;154586.19;5063989;28;20519;-90
2024/02/09 13:07:35;;;;;;;2.30;1.27;;;;;;;12.51;100.00;154573.25;5047242;28;20461;-91
2024/02/09 13:10:02;;;;;;;2.13;1.60;;;;;;;12.46;100.00;154558.97;5069399;28;21013;-92
2024/02/09 13:12:29;;;;;;;4.73;1.80;;;;;;;12.45;100.00;154557.66;5035915;28;20469;-91
2024/02/09 13:14:58;;;;;;;3.27;1.50;;;;;;;12.46;100.00;154558.97;5064961;28;20499;-91
2024/02/09 13:17:25;;;;;;;2.13;1.67;;;;;;;12.43;100.00;154552.50;5069861;28;20481;-91
2024/02/09 13:19:52;;;;;;;2.37;1.30;;;;;;;12.37;100.00;154536.91;5064092;28;20567;-90